sensor_id;sensor_type;location;lat;lon;timestamp;temperature;humidity
698;DHT22;331;48.414;9.938;2023-03-11T00:01:01;4.30;99.90
698;DHT22;331;48.414;9.938;2023-03-11T00:03:28;4.30;99.90
698;DHT22;331;48.414;9.938;2023-03-11T00:05:55;4.30;99.90
698;DHT22;331;48.414;9.938;2023-03-11T00:08:23;4.20;99.90
698;DHT22;331;48.414;9.938;2023-03-11T00:10:51;4.20;99.90
698;DHT22;331;48.414;9.938;2023-03-11T00:13:18;4.20;99.90
698;DHT22;331;48.414;9.938;2023-03-11T00:15:47;4.20;99.90
698;DHT22;331;48.414;9.938;2023-03-11T00:18:14;4.10;99.90
698;DHT22;331;48.414;9.938;2023-03-11T00:20:42;4.10;99.90
698;DHT22;331;48.414;9.938;2023-03-11T00:23:10;4.10;99.90
698;DHT22;331;48.414;9.938;2023-03-11T00:25:37;4.10;99.90
698;DHT22;331;48.414;9.938;2023-03-11T00:28:04;4.10;99.90
698;DHT22;331;48.414;9.938;2023-03-11T00:30:32;4.10;99.90
698;DHT22;331;48.414;9.938;2023-03-11T00:33:00;4.00;99.90
698;DHT22;331;48.414;9.938;2023-03-11T00:35:28;4.00;99.90
698;DHT22;331;48.414;9.938;2023-03-11T00:37:55;4.00;99.90
698;DHT22;331;48.414;9.938;2023-03-11T00:40:23;4.00;99.90
698;DHT22;331;48.414;9.938;2023-03-11T00:42:50;4.00;99.90
698;DHT22;331;48.414;9.938;2023-03-11T00:45:17;4.00;99.90
698;DHT22;331;48.414;9.938;2023-03-11T00:47:44;3.90;99.90
698;DHT22;331;48.414;9.938;2023-03-11T00:50:14;3.90;99.90
698;DHT22;331;48.414;9.938;2023-03-11T00:52:42;3.90;99.90
698;DHT22;331;48.414;9.938;2023-03-11T00:55:10;3.90;99.90
698;DHT22;331;48.414;9.938;2023-03-11T00:57:38;3.90;99.90
698;DHT22;331;48.414;9.938;2023-03-11T01:00:07;3.90;99.90
698;DHT22;331;48.414;9.938;2023-03-11T01:02:36;3.80;99.90
698;DHT22;331;48.414;9.938;2023-03-11T01:05:03;3.80;99.90
698;DHT22;331;48.414;9.938;2023-03-11T01:07:32;3.80;99.90
698;DHT22;331;48.414;9.938;2023-03-11T01:09:59;3.80;99.90
698;DHT22;331;48.414;9.938;2023-03-11T01:12:27;3.80;99.90
698;DHT22;331;48.414;9.938;2023-03-11T01:14:54;3.80;99.90
698;DHT22;331;48.414;9.938;2023-03-11T01:17:21;3.70;99.90
698;DHT22;331;48.414;9.938;2023-03-11T01:19:48;3.70;99.90
698;DHT22;331;48.414;9.938;2023-03-11T01:22:15;3.70;99.90
698;DHT22;331;48.414;9.938;2023-03-11T01:24:43;3.70;99.90
698;DHT22;331;48.414;9.938;2023-03-11T01:27:10;3.70;99.90
698;DHT22;331;48.414;9.938;2023-03-11T01:29:37;3.60;99.90
698;DHT22;331;48.414;9.938;2023-03-11T01:32:04;3.60;99.90
698;DHT22;331;48.414;9.938;2023-03-11T01:34:31;3.60;99.90
698;DHT22;331;48.414;9.938;2023-03-11T01:37:00;3.60;99.90
698;DHT22;331;48.414;9.938;2023-03-11T01:39:27;3.60;99.90
698;DHT22;331;48.414;9.938;2023-03-11T01:41:55;3.60;99.90
698;DHT22;331;48.414;9.938;2023-03-11T01:44:22;3.60;99.90
698;DHT22;331;48.414;9.938;2023-03-11T01:49:35;3.50;99.90
698;DHT22;331;48.414;9.938;2023-03-11T01:52:06;3.50;99.90
698;DHT22;331;48.414;9.938;2023-03-11T01:54:39;3.50;99.90
698;DHT22;331;48.414;9.938;2023-03-11T01:57:09;3.50;99.90
698;DHT22;331;48.414;9.938;2023-03-11T01:59:39;3.50;99.90
698;DHT22;331;48.414;9.938;2023-03-11T02:02:08;3.50;99.90
698;DHT22;331;48.414;9.938;2023-03-11T02:04:35;3.50;99.90
698;DHT22;331;48.414;9.938;2023-03-11T02:07:03;3.40;99.90
698;DHT22;331;48.414;9.938;2023-03-11T02:09:30;3.50;99.90
698;DHT22;331;48.414;9.938;2023-03-11T02:11:57;3.40;99.90
698;DHT22;331;48.414;9.938;2023-03-11T02:14:25;3.40;99.90
698;DHT22;331;48.414;9.938;2023-03-11T02:16:53;3.40;99.90
698;DHT22;331;48.414;9.938;2023-03-11T02:19:26;3.40;99.90
698;DHT22;331;48.414;9.938;2023-03-11T02:21:57;3.40;99.90
698;DHT22;331;48.414;9.938;2023-03-11T02:24:26;3.40;99.90
698;DHT22;331;48.414;9.938;2023-03-11T02:26:57;3.40;99.90
698;DHT22;331;48.414;9.938;2023-03-11T02:29:27;3.30;99.90
698;DHT22;331;48.414;9.938;2023-03-11T02:31:56;3.30;99.90
698;DHT22;331;48.414;9.938;2023-03-11T02:34:25;3.30;99.90
698;DHT22;331;48.414;9.938;2023-03-11T02:36:52;3.30;99.90
698;DHT22;331;48.414;9.938;2023-03-11T02:39:27;3.30;99.90
698;DHT22;331;48.414;9.938;2023-03-11T02:41:54;3.30;99.90
698;DHT22;331;48.414;9.938;2023-03-11T02:44:23;3.30;99.90
698;DHT22;331;48.414;9.938;2023-03-11T02:46:50;3.30;99.90
698;DHT22;331;48.414;9.938;2023-03-11T02:49:19;3.20;99.90
698;DHT22;331;48.414;9.938;2023-03-11T02:51:47;3.30;99.90
698;DHT22;331;48.414;9.938;2023-03-11T02:54:14;3.20;99.90
698;DHT22;331;48.414;9.938;2023-03-11T02:56:44;3.20;99.90
698;DHT22;331;48.414;9.938;2023-03-11T02:59:11;3.20;99.90
698;DHT22;331;48.414;9.938;2023-03-11T03:01:39;3.20;99.90
698;DHT22;331;48.414;9.938;2023-03-11T03:04:06;3.20;99.90
698;DHT22;331;48.414;9.938;2023-03-11T03:06:33;3.20;99.90
698;DHT22;331;48.414;9.938;2023-03-11T03:09:00;3.20;99.90
698;DHT22;331;48.414;9.938;2023-03-11T03:11:27;3.20;99.90
698;DHT22;331;48.414;9.938;2023-03-11T03:13:54;3.20;99.90
698;DHT22;331;48.414;9.938;2023-03-11T03:16:21;3.10;99.90
698;DHT22;331;48.414;9.938;2023-03-11T03:18:49;3.10;99.90
698;DHT22;331;48.414;9.938;2023-03-11T03:21:17;3.10;99.90
698;DHT22;331;48.414;9.938;2023-03-11T03:23:44;3.10;99.90
698;DHT22;331;48.414;9.938;2023-03-11T03:26:11;3.10;99.90
698;DHT22;331;48.414;9.938;2023-03-11T03:28:40;3.10;99.90
698;DHT22;331;48.414;9.938;2023-03-11T03:31:08;3.10;99.90
698;DHT22;331;48.414;9.938;2023-03-11T03:33:37;3.10;99.90
698;DHT22;331;48.414;9.938;2023-03-11T03:36:08;3.00;99.90
698;DHT22;331;48.414;9.938;2023-03-11T03:38:42;3.00;99.90
698;DHT22;331;48.414;9.938;2023-03-11T03:41:09;3.00;99.90
698;DHT22;331;48.414;9.938;2023-03-11T03:43:38;3.00;99.90
698;DHT22;331;48.414;9.938;2023-03-11T03:46:06;3.00;99.90
698;DHT22;331;48.414;9.938;2023-03-11T03:48:38;3.00;99.90
698;DHT22;331;48.414;9.938;2023-03-11T03:51:09;3.00;99.90
698;DHT22;331;48.414;9.938;2023-03-11T03:53:41;3.00;99.90
698;DHT22;331;48.414;9.938;2023-03-11T03:56:09;3.00;99.90
698;DHT22;331;48.414;9.938;2023-03-11T03:58:37;2.90;99.90
698;DHT22;331;48.414;9.938;2023-03-11T04:01:04;2.90;99.90
698;DHT22;331;48.414;9.938;2023-03-11T04:03:32;2.90;99.90
698;DHT22;331;48.414;9.938;2023-03-11T04:06:08;2.90;99.90
698;DHT22;331;48.414;9.938;2023-03-11T04:08:36;2.90;99.90
698;DHT22;331;48.414;9.938;2023-03-11T04:11:03;2.90;99.90
698;DHT22;331;48.414;9.938;2023-03-11T04:13:32;2.90;99.90
698;DHT22;331;48.414;9.938;2023-03-11T04:15:59;2.90;99.90
698;DHT22;331;48.414;9.938;2023-03-11T04:18:25;2.80;99.90
698;DHT22;331;48.414;9.938;2023-03-11T04:20:53;2.80;99.90
698;DHT22;331;48.414;9.938;2023-03-11T04:23:21;2.80;99.90
698;DHT22;331;48.414;9.938;2023-03-11T04:25:48;2.70;99.90
698;DHT22;331;48.414;9.938;2023-03-11T04:28:15;2.80;99.90
698;DHT22;331;48.414;9.938;2023-03-11T04:30:44;2.70;99.90
698;DHT22;331;48.414;9.938;2023-03-11T04:33:10;2.70;99.90
698;DHT22;331;48.414;9.938;2023-03-11T04:35:38;2.70;99.90
698;DHT22;331;48.414;9.938;2023-03-11T04:38:05;2.60;99.90
698;DHT22;331;48.414;9.938;2023-03-11T04:40:35;2.70;99.90
698;DHT22;331;48.414;9.938;2023-03-11T04:43:02;2.60;99.90
698;DHT22;331;48.414;9.938;2023-03-11T04:45:29;2.60;99.90
698;DHT22;331;48.414;9.938;2023-03-11T04:47:59;2.60;99.90
698;DHT22;331;48.414;9.938;2023-03-11T04:50:26;2.60;99.90
698;DHT22;331;48.414;9.938;2023-03-11T04:52:53;2.60;99.90
698;DHT22;331;48.414;9.938;2023-03-11T04:55:21;2.50;99.90
698;DHT22;331;48.414;9.938;2023-03-11T04:57:50;2.50;99.90
698;DHT22;331;48.414;9.938;2023-03-11T05:00:17;2.50;99.90
698;DHT22;331;48.414;9.938;2023-03-11T05:02:55;2.50;99.90
698;DHT22;331;48.414;9.938;2023-03-11T05:05:23;2.50;99.90
698;DHT22;331;48.414;9.938;2023-03-11T05:07:49;2.40;99.90
698;DHT22;331;48.414;9.938;2023-03-11T05:10:16;2.40;99.90
698;DHT22;331;48.414;9.938;2023-03-11T05:12:47;2.40;99.90
698;DHT22;331;48.414;9.938;2023-03-11T05:15:15;2.40;99.90
698;DHT22;331;48.414;9.938;2023-03-11T05:17:42;2.40;99.90
698;DHT22;331;48.414;9.938;2023-03-11T05:20:09;2.40;99.90
698;DHT22;331;48.414;9.938;2023-03-11T05:22:37;2.30;99.90
698;DHT22;331;48.414;9.938;2023-03-11T05:25:04;2.40;99.90
698;DHT22;331;48.414;9.938;2023-03-11T05:27:32;2.30;99.90
698;DHT22;331;48.414;9.938;2023-03-11T05:29:59;2.30;99.90
698;DHT22;331;48.414;9.938;2023-03-11T05:32:31;2.20;99.90
698;DHT22;331;48.414;9.938;2023-03-11T05:34:58;2.30;99.90
698;DHT22;331;48.414;9.938;2023-03-11T05:37:26;2.20;99.90
698;DHT22;331;48.414;9.938;2023-03-11T05:39:54;2.30;99.90
698;DHT22;331;48.414;9.938;2023-03-11T05:42:22;2.30;99.90
698;DHT22;331;48.414;9.938;2023-03-11T05:44:52;2.30;99.90
698;DHT22;331;48.414;9.938;2023-03-11T05:47:21;2.30;99.90
698;DHT22;331;48.414;9.938;2023-03-11T05:49:50;2.30;99.90
698;DHT22;331;48.414;9.938;2023-03-11T05:52:18;2.30;99.90
698;DHT22;331;48.414;9.938;2023-03-11T05:54:47;2.20;99.90
698;DHT22;331;48.414;9.938;2023-03-11T05:57:15;2.20;99.90
698;DHT22;331;48.414;9.938;2023-03-11T05:59:44;2.20;99.90
698;DHT22;331;48.414;9.938;2023-03-11T06:02:11;2.20;99.90
698;DHT22;331;48.414;9.938;2023-03-11T06:04:38;2.20;99.90
698;DHT22;331;48.414;9.938;2023-03-11T06:07:08;2.20;99.90
698;DHT22;331;48.414;9.938;2023-03-11T06:09:37;2.30;99.90
698;DHT22;331;48.414;9.938;2023-03-11T06:12:09;2.20;99.90
698;DHT22;331;48.414;9.938;2023-03-11T06:14:48;2.20;99.90
698;DHT22;331;48.414;9.938;2023-03-11T06:17:15;2.20;99.90
698;DHT22;331;48.414;9.938;2023-03-11T06:19:42;2.10;99.90
698;DHT22;331;48.414;9.938;2023-03-11T06:22:10;2.20;99.90
698;DHT22;331;48.414;9.938;2023-03-11T06:24:38;2.20;99.90
698;DHT22;331;48.414;9.938;2023-03-11T06:27:05;2.10;99.90
698;DHT22;331;48.414;9.938;2023-03-11T06:29:34;2.20;99.90
698;DHT22;331;48.414;9.938;2023-03-11T06:32:01;2.10;99.90
698;DHT22;331;48.414;9.938;2023-03-11T06:34:28;2.10;99.90
698;DHT22;331;48.414;9.938;2023-03-11T06:36:55;2.10;99.90
698;DHT22;331;48.414;9.938;2023-03-11T06:39:25;2.10;99.90
698;DHT22;331;48.414;9.938;2023-03-11T06:41:52;2.10;99.90
698;DHT22;331;48.414;9.938;2023-03-11T06:44:19;2.10;99.90
698;DHT22;331;48.414;9.938;2023-03-11T06:49:14;2.00;99.90
698;DHT22;331;48.414;9.938;2023-03-11T06:51:42;1.90;99.90
698;DHT22;331;48.414;9.938;2023-03-11T06:54:09;2.00;99.90
698;DHT22;331;48.414;9.938;2023-03-11T06:56:38;2.00;99.90
698;DHT22;331;48.414;9.938;2023-03-11T06:59:07;1.90;99.90
698;DHT22;331;48.414;9.938;2023-03-11T07:01:34;1.90;99.90
698;DHT22;331;48.414;9.938;2023-03-11T07:04:04;1.90;99.90
698;DHT22;331;48.414;9.938;2023-03-11T07:06:32;1.90;99.90
698;DHT22;331;48.414;9.938;2023-03-11T07:09:13;1.90;99.90
698;DHT22;331;48.414;9.938;2023-03-11T07:11:44;1.90;99.90
698;DHT22;331;48.414;9.938;2023-03-11T07:16:46;1.90;99.90
698;DHT22;331;48.414;9.938;2023-03-11T07:19:21;1.90;99.90
698;DHT22;331;48.414;9.938;2023-03-11T07:21:48;1.90;99.90
698;DHT22;331;48.414;9.938;2023-03-11T07:24:15;1.90;99.90
698;DHT22;331;48.414;9.938;2023-03-11T07:26:43;1.90;99.90
698;DHT22;331;48.414;9.938;2023-03-11T07:29:10;1.90;99.90
698;DHT22;331;48.414;9.938;2023-03-11T07:31:37;1.90;99.90
698;DHT22;331;48.414;9.938;2023-03-11T07:34:04;1.80;99.90
698;DHT22;331;48.414;9.938;2023-03-11T07:36:35;1.90;99.90
698;DHT22;331;48.414;9.938;2023-03-11T07:39:03;1.90;99.90
698;DHT22;331;48.414;9.938;2023-03-11T07:41:31;1.90;99.90
698;DHT22;331;48.414;9.938;2023-03-11T07:44:00;1.90;99.90
698;DHT22;331;48.414;9.938;2023-03-11T07:46:27;1.90;99.90
698;DHT22;331;48.414;9.938;2023-03-11T07:48:55;1.90;99.90
698;DHT22;331;48.414;9.938;2023-03-11T07:51:22;1.90;99.90
698;DHT22;331;48.414;9.938;2023-03-11T07:53:51;1.80;99.90
698;DHT22;331;48.414;9.938;2023-03-11T07:56:18;1.80;99.90
698;DHT22;331;48.414;9.938;2023-03-11T07:58:45;1.80;99.90
698;DHT22;331;48.414;9.938;2023-03-11T08:01:14;1.80;99.90
698;DHT22;331;48.414;9.938;2023-03-11T08:03:41;1.80;99.90
698;DHT22;331;48.414;9.938;2023-03-11T08:06:12;1.80;99.90
698;DHT22;331;48.414;9.938;2023-03-11T08:08:39;1.80;99.90
698;DHT22;331;48.414;9.938;2023-03-11T08:11:06;1.80;99.90
698;DHT22;331;48.414;9.938;2023-03-11T08:13:33;1.80;99.90
698;DHT22;331;48.414;9.938;2023-03-11T08:16:02;1.80;99.90
698;DHT22;331;48.414;9.938;2023-03-11T08:18:30;1.70;99.90
698;DHT22;331;48.414;9.938;2023-03-11T08:20:57;1.80;99.90
698;DHT22;331;48.414;9.938;2023-03-11T08:23:24;1.80;99.90
698;DHT22;331;48.414;9.938;2023-03-11T08:25:51;1.80;99.90
698;DHT22;331;48.414;9.938;2023-03-11T08:28:18;1.70;99.90
698;DHT22;331;48.414;9.938;2023-03-11T08:30:44;1.80;99.90
698;DHT22;331;48.414;9.938;2023-03-11T08:33:11;1.80;99.90
698;DHT22;331;48.414;9.938;2023-03-11T08:35:39;1.80;99.90
698;DHT22;331;48.414;9.938;2023-03-11T08:38:06;1.70;99.90
698;DHT22;331;48.414;9.938;2023-03-11T08:40:33;1.80;99.90
698;DHT22;331;48.414;9.938;2023-03-11T08:43:00;1.70;99.90
698;DHT22;331;48.414;9.938;2023-03-11T08:45:26;1.70;99.90
698;DHT22;331;48.414;9.938;2023-03-11T08:47:53;1.70;99.90
698;DHT22;331;48.414;9.938;2023-03-11T08:50:20;1.70;99.90
698;DHT22;331;48.414;9.938;2023-03-11T08:52:48;1.70;99.90
698;DHT22;331;48.414;9.938;2023-03-11T08:55:15;1.70;99.90
698;DHT22;331;48.414;9.938;2023-03-11T08:57:49;1.70;99.90
698;DHT22;331;48.414;9.938;2023-03-11T09:00:16;1.70;99.90
698;DHT22;331;48.414;9.938;2023-03-11T09:02:43;1.70;99.90
698;DHT22;331;48.414;9.938;2023-03-11T09:05:10;1.70;99.90
698;DHT22;331;48.414;9.938;2023-03-11T09:07:37;1.70;99.90
698;DHT22;331;48.414;9.938;2023-03-11T09:10:05;1.70;99.90
698;DHT22;331;48.414;9.938;2023-03-11T09:12:32;1.70;99.90
698;DHT22;331;48.414;9.938;2023-03-11T09:14:59;1.70;99.90
698;DHT22;331;48.414;9.938;2023-03-11T09:17:26;1.70;99.90
698;DHT22;331;48.414;9.938;2023-03-11T09:19:53;1.70;99.90
698;DHT22;331;48.414;9.938;2023-03-11T09:22:19;1.70;99.90
698;DHT22;331;48.414;9.938;2023-03-11T09:24:46;1.70;99.90
698;DHT22;331;48.414;9.938;2023-03-11T09:27:17;1.70;99.90
698;DHT22;331;48.414;9.938;2023-03-11T09:29:43;1.70;99.90
698;DHT22;331;48.414;9.938;2023-03-11T09:32:11;1.70;99.90
698;DHT22;331;48.414;9.938;2023-03-11T09:34:38;1.70;99.90
698;DHT22;331;48.414;9.938;2023-03-11T09:37:04;1.70;99.90
698;DHT22;331;48.414;9.938;2023-03-11T09:39:31;1.70;99.90
698;DHT22;331;48.414;9.938;2023-03-11T09:42:00;1.70;99.90
698;DHT22;331;48.414;9.938;2023-03-11T09:44:32;1.70;99.90
698;DHT22;331;48.414;9.938;2023-03-11T09:47:07;1.70;99.90
698;DHT22;331;48.414;9.938;2023-03-11T09:49:40;1.70;99.90
698;DHT22;331;48.414;9.938;2023-03-11T09:52:09;1.70;99.90
698;DHT22;331;48.414;9.938;2023-03-11T09:54:36;1.70;99.90
698;DHT22;331;48.414;9.938;2023-03-11T09:57:05;1.70;99.90
698;DHT22;331;48.414;9.938;2023-03-11T09:59:36;1.70;99.90
698;DHT22;331;48.414;9.938;2023-03-11T10:02:04;1.70;99.90
698;DHT22;331;48.414;9.938;2023-03-11T10:04:32;1.70;99.90
698;DHT22;331;48.414;9.938;2023-03-11T10:07:00;1.70;99.90
698;DHT22;331;48.414;9.938;2023-03-11T10:09:29;1.80;99.90
698;DHT22;331;48.414;9.938;2023-03-11T10:12:01;1.70;99.90
698;DHT22;331;48.414;9.938;2023-03-11T10:14:40;1.80;99.90
698;DHT22;331;48.414;9.938;2023-03-11T10:17:11;1.70;99.90
698;DHT22;331;48.414;9.938;2023-03-11T10:19:41;1.70;99.90
698;DHT22;331;48.414;9.938;2023-03-11T10:22:11;1.70;99.90
698;DHT22;331;48.414;9.938;2023-03-11T10:24:43;1.70;99.90
698;DHT22;331;48.414;9.938;2023-03-11T10:27:13;1.70;99.90
698;DHT22;331;48.414;9.938;2023-03-11T10:29:44;1.80;99.90
698;DHT22;331;48.414;9.938;2023-03-11T10:32:14;1.80;99.90
698;DHT22;331;48.414;9.938;2023-03-11T10:34:43;1.80;99.90
698;DHT22;331;48.414;9.938;2023-03-11T10:37:13;1.80;99.90
698;DHT22;331;48.414;9.938;2023-03-11T10:39:42;1.80;99.90
698;DHT22;331;48.414;9.938;2023-03-11T10:42:12;1.80;99.90
698;DHT22;331;48.414;9.938;2023-03-11T10:44:41;1.80;99.90
698;DHT22;331;48.414;9.938;2023-03-11T10:47:11;1.80;99.90
698;DHT22;331;48.414;9.938;2023-03-11T10:49:41;1.80;99.90
698;DHT22;331;48.414;9.938;2023-03-11T10:52:08;1.80;99.90
698;DHT22;331;48.414;9.938;2023-03-11T10:54:36;1.80;99.90
698;DHT22;331;48.414;9.938;2023-03-11T10:57:04;1.80;99.90
698;DHT22;331;48.414;9.938;2023-03-11T10:59:32;1.80;99.90
698;DHT22;331;48.414;9.938;2023-03-11T11:02:02;1.80;99.90
698;DHT22;331;48.414;9.938;2023-03-11T11:04:32;1.80;99.90
698;DHT22;331;48.414;9.938;2023-03-11T11:07:15;1.90;99.90
698;DHT22;331;48.414;9.938;2023-03-11T11:09:45;1.90;99.90
698;DHT22;331;48.414;9.938;2023-03-11T11:12:13;1.90;99.90
698;DHT22;331;48.414;9.938;2023-03-11T11:14:41;1.90;99.90
698;DHT22;331;48.414;9.938;2023-03-11T11:17:14;1.90;99.90
698;DHT22;331;48.414;9.938;2023-03-11T11:19:43;1.90;99.90
698;DHT22;331;48.414;9.938;2023-03-11T11:22:10;1.90;99.90
698;DHT22;331;48.414;9.938;2023-03-11T11:24:42;1.90;99.90
698;DHT22;331;48.414;9.938;2023-03-11T11:27:14;1.90;99.90
698;DHT22;331;48.414;9.938;2023-03-11T11:29:41;1.90;99.90
698;DHT22;331;48.414;9.938;2023-03-11T11:32:15;2.00;99.90
698;DHT22;331;48.414;9.938;2023-03-11T11:34:52;1.90;99.90
698;DHT22;331;48.414;9.938;2023-03-11T11:37:19;2.00;99.90
698;DHT22;331;48.414;9.938;2023-03-11T11:39:48;1.90;99.90
698;DHT22;331;48.414;9.938;2023-03-11T11:42:17;2.00;99.90
698;DHT22;331;48.414;9.938;2023-03-11T11:44:45;2.00;99.90
698;DHT22;331;48.414;9.938;2023-03-11T11:47:14;1.90;99.90
698;DHT22;331;48.414;9.938;2023-03-11T11:49:43;2.00;99.90
698;DHT22;331;48.414;9.938;2023-03-11T11:52:16;2.00;99.90
698;DHT22;331;48.414;9.938;2023-03-11T11:54:44;2.10;99.90
698;DHT22;331;48.414;9.938;2023-03-11T11:57:17;2.10;99.90
698;DHT22;331;48.414;9.938;2023-03-11T11:59:45;2.10;99.90
698;DHT22;331;48.414;9.938;2023-03-11T12:02:18;2.20;99.90
698;DHT22;331;48.414;9.938;2023-03-11T12:04:52;2.20;99.90
698;DHT22;331;48.414;9.938;2023-03-11T12:07:25;2.30;99.90
698;DHT22;331;48.414;9.938;2023-03-11T12:09:56;2.30;99.90
698;DHT22;331;48.414;9.938;2023-03-11T12:12:26;2.30;99.90
698;DHT22;331;48.414;9.938;2023-03-11T12:14:56;2.30;99.90
698;DHT22;331;48.414;9.938;2023-03-11T12:17:26;2.40;99.90
698;DHT22;331;48.414;9.938;2023-03-11T12:19:57;2.40;99.90
698;DHT22;331;48.414;9.938;2023-03-11T12:22:36;2.40;99.90
698;DHT22;331;48.414;9.938;2023-03-11T12:25:15;2.40;99.90
698;DHT22;331;48.414;9.938;2023-03-11T12:27:47;2.40;99.90
698;DHT22;331;48.414;9.938;2023-03-11T12:30:15;2.40;99.90
698;DHT22;331;48.414;9.938;2023-03-11T12:32:46;2.40;99.90
698;DHT22;331;48.414;9.938;2023-03-11T12:35:19;2.40;99.90
698;DHT22;331;48.414;9.938;2023-03-11T12:37:55;2.40;99.90
698;DHT22;331;48.414;9.938;2023-03-11T12:43:21;2.50;99.90
698;DHT22;331;48.414;9.938;2023-03-11T12:45:49;2.50;99.90
698;DHT22;331;48.414;9.938;2023-03-11T12:53:53;2.50;99.90
698;DHT22;331;48.414;9.938;2023-03-11T12:56:23;2.50;99.90
698;DHT22;331;48.414;9.938;2023-03-11T13:01:38;2.50;99.90
698;DHT22;331;48.414;9.938;2023-03-11T13:07:05;2.60;99.90
698;DHT22;331;48.414;9.938;2023-03-11T13:09:39;2.60;99.90
698;DHT22;331;48.414;9.938;2023-03-11T13:14:48;2.60;99.90
698;DHT22;331;48.414;9.938;2023-03-11T13:17:22;2.60;99.90
698;DHT22;331;48.414;9.938;2023-03-11T13:19:51;2.60;99.90
698;DHT22;331;48.414;9.938;2023-03-11T13:25:18;2.70;99.90
698;DHT22;331;48.414;9.938;2023-03-11T13:27:50;2.70;99.90
698;DHT22;331;48.414;9.938;2023-03-11T13:30:23;2.70;99.90
698;DHT22;331;48.414;9.938;2023-03-11T13:35:42;2.70;99.90
698;DHT22;331;48.414;9.938;2023-03-11T13:38:12;2.80;99.90
698;DHT22;331;48.414;9.938;2023-03-11T13:40:44;2.80;99.90
698;DHT22;331;48.414;9.938;2023-03-11T13:43:14;2.80;99.90
698;DHT22;331;48.414;9.938;2023-03-11T13:45:44;2.90;99.90
698;DHT22;331;48.414;9.938;2023-03-11T13:48:13;2.90;99.90
698;DHT22;331;48.414;9.938;2023-03-11T13:50:42;2.90;99.90
698;DHT22;331;48.414;9.938;2023-03-11T13:53:14;2.90;99.90
698;DHT22;331;48.414;9.938;2023-03-11T13:55:44;2.90;99.90
698;DHT22;331;48.414;9.938;2023-03-11T13:58:15;3.00;99.90
698;DHT22;331;48.414;9.938;2023-03-11T14:00:46;3.00;99.90
698;DHT22;331;48.414;9.938;2023-03-11T14:03:13;3.00;99.90
698;DHT22;331;48.414;9.938;2023-03-11T14:05:44;3.00;99.90
698;DHT22;331;48.414;9.938;2023-03-11T14:08:11;3.10;99.90
698;DHT22;331;48.414;9.938;2023-03-11T14:10:38;3.10;99.90
698;DHT22;331;48.414;9.938;2023-03-11T14:13:13;3.10;99.90
698;DHT22;331;48.414;9.938;2023-03-11T14:15:50;3.10;99.90
698;DHT22;331;48.414;9.938;2023-03-11T14:18:24;3.10;99.90
698;DHT22;331;48.414;9.938;2023-03-11T14:20:51;3.20;99.90
698;DHT22;331;48.414;9.938;2023-03-11T14:23:18;3.20;99.90
698;DHT22;331;48.414;9.938;2023-03-11T14:25:45;3.20;99.90
698;DHT22;331;48.414;9.938;2023-03-11T14:28:16;3.30;99.90
698;DHT22;331;48.414;9.938;2023-03-11T14:30:53;3.30;99.90
698;DHT22;331;48.414;9.938;2023-03-11T14:33:21;3.30;99.90
698;DHT22;331;48.414;9.938;2023-03-11T14:35:50;3.30;99.90
698;DHT22;331;48.414;9.938;2023-03-11T14:38:20;3.30;99.90
698;DHT22;331;48.414;9.938;2023-03-11T14:40:48;3.40;99.90
698;DHT22;331;48.414;9.938;2023-03-11T14:43:17;3.50;99.90
698;DHT22;331;48.414;9.938;2023-03-11T14:45:45;3.50;99.90
698;DHT22;331;48.414;9.938;2023-03-11T14:48:13;3.50;99.90
698;DHT22;331;48.414;9.938;2023-03-11T14:50:42;3.50;99.90
698;DHT22;331;48.414;9.938;2023-03-11T14:53:14;3.50;99.90
698;DHT22;331;48.414;9.938;2023-03-11T14:55:42;3.50;99.90
698;DHT22;331;48.414;9.938;2023-03-11T14:58:16;3.60;99.90
698;DHT22;331;48.414;9.938;2023-03-11T15:00:48;3.70;99.90
698;DHT22;331;48.414;9.938;2023-03-11T15:03:21;3.80;99.90
698;DHT22;331;48.414;9.938;2023-03-11T15:05:49;3.80;99.90
698;DHT22;331;48.414;9.938;2023-03-11T15:08:17;3.80;99.90
698;DHT22;331;48.414;9.938;2023-03-11T15:10:59;3.80;99.90
698;DHT22;331;48.414;9.938;2023-03-11T15:13:26;3.80;99.90
698;DHT22;331;48.414;9.938;2023-03-11T15:15:57;3.80;99.90
698;DHT22;331;48.414;9.938;2023-03-11T15:18:26;3.80;99.90
698;DHT22;331;48.414;9.938;2023-03-11T15:21:00;3.90;99.90
698;DHT22;331;48.414;9.938;2023-03-11T15:23:28;3.80;99.90
698;DHT22;331;48.414;9.938;2023-03-11T15:25:55;3.80;99.90
698;DHT22;331;48.414;9.938;2023-03-11T15:28:22;3.80;99.90
698;DHT22;331;48.414;9.938;2023-03-11T15:30:50;3.80;99.90
698;DHT22;331;48.414;9.938;2023-03-11T15:33:23;3.80;99.90
698;DHT22;331;48.414;9.938;2023-03-11T15:35:57;3.80;99.90
698;DHT22;331;48.414;9.938;2023-03-11T15:38:24;3.80;99.90
698;DHT22;331;48.414;9.938;2023-03-11T15:40:53;3.90;99.90
698;DHT22;331;48.414;9.938;2023-03-11T15:43:21;3.90;99.90
698;DHT22;331;48.414;9.938;2023-03-11T15:45:49;3.90;99.90
698;DHT22;331;48.414;9.938;2023-03-11T15:48:17;3.90;99.90
698;DHT22;331;48.414;9.938;2023-03-11T15:50:46;3.90;99.90
698;DHT22;331;48.414;9.938;2023-03-11T15:53:14;3.90;99.90
698;DHT22;331;48.414;9.938;2023-03-11T15:55:40;3.90;99.90
698;DHT22;331;48.414;9.938;2023-03-11T15:58:07;3.90;99.90
698;DHT22;331;48.414;9.938;2023-03-11T16:00:35;4.00;99.90
698;DHT22;331;48.414;9.938;2023-03-11T16:03:03;4.00;99.90
698;DHT22;331;48.414;9.938;2023-03-11T16:05:30;4.00;99.90
698;DHT22;331;48.414;9.938;2023-03-11T16:07:58;4.00;99.90
698;DHT22;331;48.414;9.938;2023-03-11T16:10:25;4.00;99.90
698;DHT22;331;48.414;9.938;2023-03-11T16:12:53;4.00;99.90
698;DHT22;331;48.414;9.938;2023-03-11T16:15:21;4.00;99.90
698;DHT22;331;48.414;9.938;2023-03-11T16:17:49;4.00;99.90
698;DHT22;331;48.414;9.938;2023-03-11T16:20:17;4.00;99.90
698;DHT22;331;48.414;9.938;2023-03-11T16:22:46;4.00;99.90
698;DHT22;331;48.414;9.938;2023-03-11T16:25:18;4.00;99.90
698;DHT22;331;48.414;9.938;2023-03-11T16:27:46;4.00;99.90
698;DHT22;331;48.414;9.938;2023-03-11T16:30:13;4.10;99.90
698;DHT22;331;48.414;9.938;2023-03-11T16:32:40;4.10;99.90
698;DHT22;331;48.414;9.938;2023-03-11T16:35:08;4.10;99.90
698;DHT22;331;48.414;9.938;2023-03-11T16:37:35;4.10;99.90
698;DHT22;331;48.414;9.938;2023-03-11T16:40:02;4.10;99.90
698;DHT22;331;48.414;9.938;2023-03-11T16:42:32;4.10;99.90
698;DHT22;331;48.414;9.938;2023-03-11T16:44:59;4.10;99.90
698;DHT22;331;48.414;9.938;2023-03-11T16:47:26;4.10;99.90
698;DHT22;331;48.414;9.938;2023-03-11T16:49:53;4.10;99.90
698;DHT22;331;48.414;9.938;2023-03-11T16:52:20;4.00;99.90
698;DHT22;331;48.414;9.938;2023-03-11T16:54:48;4.10;99.90
698;DHT22;331;48.414;9.938;2023-03-11T16:57:15;4.10;99.90
698;DHT22;331;48.414;9.938;2023-03-11T16:59:43;4.10;99.90
698;DHT22;331;48.414;9.938;2023-03-11T17:02:10;4.10;99.90
698;DHT22;331;48.414;9.938;2023-03-11T17:04:37;4.10;99.90
698;DHT22;331;48.414;9.938;2023-03-11T17:07:04;4.10;99.90
698;DHT22;331;48.414;9.938;2023-03-11T17:09:31;4.10;99.90
698;DHT22;331;48.414;9.938;2023-03-11T17:11:58;4.10;99.90
698;DHT22;331;48.414;9.938;2023-03-11T17:14:25;4.10;99.90
698;DHT22;331;48.414;9.938;2023-03-11T17:16:53;4.10;99.90
698;DHT22;331;48.414;9.938;2023-03-11T17:19:21;4.10;99.90
698;DHT22;331;48.414;9.938;2023-03-11T17:21:48;4.10;99.90
698;DHT22;331;48.414;9.938;2023-03-11T17:24:15;4.10;99.90
698;DHT22;331;48.414;9.938;2023-03-11T17:26:42;4.00;99.90
698;DHT22;331;48.414;9.938;2023-03-11T17:29:09;4.00;99.90
698;DHT22;331;48.414;9.938;2023-03-11T17:31:36;4.00;99.90